Juazeiro, Brazil
Current Conditions -  °F | °C
As of 10:00 AM on Saturday 20 Dec 2014 (Local Time) from SBPL Reporting Station
Broken Clouds Broken Clouds  
Wind Chill: 81°   Ceiling: 2500
Heat Index: 87°   Visibility: 6mi
Dew Point: 77°   Wind: 5mph
Humidity: 89%   Direction: 130°SE
Pressure: 30"   Gusts: NA
Location:  9.41°S, 40.5°W
Report Text: SBPL 201300Z 13004KT 9999 BKN025 BKN080 27/25 Q1016
Loading
Personal Weather Stations






























Interactive Weather Map New forecast layout! Learn more

10-Day Weather Forecast

Advertisements
Track Severe Weather on mobile